createdAt,value
2018-04-10T00:01:58.939Z,64.20
2018-04-10T00:04:26.500Z,64.50
2018-04-10T00:06:55.946Z,64.70
2018-04-10T00:09:24.216Z,65.00
2018-04-10T00:11:51.743Z,65.00
2018-04-10T00:14:19.271Z,65.60
2018-04-10T00:16:46.899Z,65.80
2018-04-10T00:19:14.422Z,65.70
2018-04-10T00:21:41.927Z,65.20
2018-04-10T00:24:10.750Z,65.10
2018-04-10T00:26:39.969Z,64.80
2018-04-10T00:29:07.502Z,64.30
2018-04-10T00:31:34.985Z,63.80
2018-04-10T00:34:02.559Z,63.70
2018-04-10T00:36:30.099Z,63.60
2018-04-10T00:38:57.606Z,64.00
2018-04-10T00:41:26.188Z,64.50
2018-04-10T00:43:53.735Z,64.60
2018-04-10T00:48:23.310Z,65.10
2018-04-10T00:50:51.579Z,65.00
2018-04-10T00:53:34.166Z,64.90
2018-04-10T00:56:01.838Z,66.10
2018-04-10T00:58:29.390Z,65.40
2018-04-10T01:00:57.710Z,65.80
2018-04-10T01:03:25.211Z,65.80
2018-04-10T01:05:58.783Z,66.60
2018-04-10T01:08:26.311Z,65.80
2018-04-10T01:10:53.780Z,66.10
2018-04-10T01:13:21.345Z,66.10
2018-04-10T01:15:48.895Z,66.00
2018-04-10T01:18:16.459Z,65.70
2018-04-10T01:20:44.012Z,65.60
2018-04-10T01:23:11.749Z,65.30
2018-04-10T01:25:39.271Z,65.60
2018-04-10T01:28:07.000Z,65.80
2018-04-10T01:30:35.372Z,66.30
2018-04-10T01:33:02.991Z,66.30
2018-04-10T01:35:30.536Z,66.50
2018-04-10T01:37:58.813Z,66.50
2018-04-10T01:40:27.106Z,66.10
2018-04-10T01:42:56.384Z,66.10
2018-04-10T01:45:23.979Z,66.30
2018-04-10T01:47:52.277Z,66.50
2018-04-10T01:50:20.756Z,66.60
2018-04-10T01:52:58.699Z,66.60
2018-04-10T01:55:26.259Z,67.70
2018-04-10T01:57:54.535Z,67.90
2018-04-10T02:00:22.111Z,67.80
2018-04-10T02:02:50.423Z,68.80
2018-04-10T02:05:40.416Z,68.20
2018-04-10T02:08:08.771Z,68.40
2018-04-10T02:10:36.319Z,68.30
2018-04-10T02:13:03.879Z,68.60
2018-04-10T02:15:31.369Z,68.40
2018-04-10T02:17:58.929Z,68.40
2018-04-10T02:20:26.462Z,68.40
2018-04-10T02:22:53.998Z,68.40
2018-04-10T02:25:22.502Z,68.70
2018-04-10T02:27:49.999Z,68.70
2018-04-10T02:30:17.608Z,68.50
2018-04-10T02:32:45.182Z,68.70
2018-04-10T02:35:12.694Z,68.60
2018-04-10T02:37:41.094Z,68.20
2018-04-10T02:40:08.613Z,68.20
2018-04-10T02:42:36.192Z,68.20
2018-04-10T02:45:03.711Z,67.00
2018-04-10T02:47:32.174Z,68.00
2018-04-10T02:49:59.719Z,67.90
2018-04-10T02:52:27.268Z,67.50
2018-04-10T02:54:54.995Z,67.60
2018-04-10T02:57:23.328Z,67.70
2018-04-10T02:59:50.893Z,67.70
2018-04-10T03:02:18.688Z,68.20
2018-04-10T03:04:46.607Z,67.70
2018-04-10T03:07:14.162Z,67.60
2018-04-10T03:09:41.673Z,67.60
2018-04-10T03:12:09.980Z,67.80
2018-04-10T03:14:38.664Z,67.80
2018-04-10T03:17:06.204Z,67.50
2018-04-10T03:19:33.715Z,67.30
2018-04-10T03:22:01.271Z,67.10
2018-04-10T03:24:28.984Z,67.30
2018-04-10T03:26:56.551Z,67.30
2018-04-10T03:29:24.202Z,68.00
2018-04-10T03:31:51.717Z,67.60
2018-04-10T03:34:24.662Z,67.70
2018-04-10T03:36:52.187Z,68.10
2018-04-10T03:39:19.699Z,68.70
2018-04-10T03:41:47.968Z,69.50
2018-04-10T03:44:15.479Z,69.50
2018-04-10T03:46:42.994Z,70.40
2018-04-10T03:49:10.871Z,69.20
2018-04-10T03:51:38.376Z,68.30
2018-04-10T03:54:05.884Z,68.80
2018-04-10T03:56:33.435Z,69.10
2018-04-10T03:59:00.962Z,68.70
2018-04-10T04:01:28.454Z,70.40
2018-04-10T04:03:55.960Z,70.70
2018-04-10T04:06:23.483Z,71.00
2018-04-10T04:08:51.055Z,71.40
2018-04-10T04:11:18.774Z,71.30
2018-04-10T04:13:46.352Z,71.60
2018-04-10T04:19:28.997Z,71.80
2018-04-10T06:15:58.223Z,67.30
2018-04-10T06:18:26.717Z,67.00
2018-04-10T06:20:54.194Z,66.20
2018-04-10T06:23:21.693Z,66.10
2018-04-10T06:25:57.261Z,66.20
2018-04-10T06:28:46.541Z,64.60
2018-04-10T06:31:14.018Z,64.20
2018-04-10T06:33:41.499Z,63.30
2018-04-10T06:36:09.722Z,62.80
2018-04-10T06:38:37.204Z,62.70
2018-04-10T06:41:04.678Z,62.10
2018-04-10T06:43:32.169Z,61.10
2018-04-10T06:48:53.102Z,61.80
2018-04-10T06:51:21.566Z,61.20
2018-04-10T06:53:49.104Z,60.00
2018-04-10T06:56:17.359Z,60.20
2018-04-10T06:58:46.928Z,60.20
2018-04-10T07:01:21.252Z,60.20
2018-04-10T07:03:48.771Z,59.80
2018-04-10T07:06:16.400Z,59.60
2018-04-10T07:08:44.728Z,59.00
2018-04-10T07:11:13.893Z,59.00
2018-04-10T07:13:41.472Z,58.50
2018-04-10T07:16:09.938Z,58.10
2018-04-10T07:18:37.519Z,57.50
2018-04-10T07:21:08.965Z,56.80
2018-04-10T07:23:41.859Z,57.00
2018-04-10T07:26:28.399Z,57.30
2018-04-10T07:28:57.716Z,57.00
2018-04-10T07:31:32.075Z,57.00
2018-04-10T07:34:01.459Z,55.60
2018-04-10T07:36:30.303Z,55.50
2018-04-10T07:38:59.485Z,55.90
2018-04-10T07:44:27.364Z,55.40
2018-04-10T07:50:00.652Z,53.70
2018-04-10T07:52:28.317Z,53.70
2018-04-10T07:54:57.664Z,53.60
2018-04-10T07:57:57.724Z,53.70
2018-04-10T08:03:29.548Z,52.90
2018-04-10T08:08:58.994Z,53.20
2018-04-10T08:11:31.887Z,52.30
2018-04-10T08:13:59.582Z,52.30
2018-04-10T08:16:29.784Z,52.10
2018-04-10T08:18:57.395Z,51.60
2018-04-10T08:21:28.274Z,50.90
2018-04-10T08:23:57.131Z,49.70
2018-04-10T08:26:27.493Z,50.90
2018-04-10T08:28:55.234Z,50.80
2018-04-10T08:31:30.789Z,48.50
2018-04-10T08:33:58.835Z,48.50
2018-04-10T08:36:27.267Z,50.10
2018-04-10T08:38:59.298Z,50.50
2018-04-10T08:41:27.804Z,50.50
2018-04-10T08:43:58.723Z,50.40
2018-04-10T08:46:26.292Z,49.90
2018-04-10T08:49:00.023Z,49.60
2018-04-10T08:51:27.732Z,50.90
2018-04-10T08:53:56.668Z,49.70
2018-04-10T08:56:27.525Z,49.70
2018-04-10T09:02:12.099Z,48.50
2018-04-10T09:28:32.408Z,46.60
2018-04-10T09:31:11.592Z,45.70
2018-04-10T09:33:39.073Z,46.00
2018-04-10T09:36:06.591Z,45.50
2018-04-10T09:38:44.423Z,44.60
2018-04-10T09:41:34.629Z,42.90
2018-04-10T09:44:02.204Z,42.30
2018-04-10T09:55:57.908Z,41.20
2018-04-10T10:14:28.285Z,39.00
2018-04-10T10:25:58.368Z,37.90
2018-04-10T10:31:30.814Z,37.60
2018-04-10T10:33:59.656Z,38.00
2018-04-10T10:36:27.313Z,36.80
2018-04-10T10:41:57.837Z,37.60
2018-04-10T10:44:28.621Z,38.50
2018-04-10T10:46:58.107Z,38.40
2018-04-10T10:49:28.920Z,37.20
2018-04-10T10:51:58.064Z,38.20
2018-04-10T10:54:33.651Z,36.70
2018-04-10T10:57:01.667Z,36.70
2018-04-10T10:59:29.349Z,35.60
2018-04-10T11:01:59.888Z,36.00
2018-04-10T11:04:27.410Z,36.30
2018-04-10T11:07:03.396Z,36.00
2018-04-10T11:09:49.339Z,36.70
2018-04-10T11:12:21.437Z,37.80
2018-04-10T11:14:55.573Z,37.10
2018-04-10T11:17:27.412Z,36.70
2018-04-10T11:19:57.143Z,36.60
2018-04-10T11:22:27.841Z,37.60
2018-04-10T11:24:57.398Z,37.30
2018-04-10T11:27:29.105Z,37.30
2018-04-10T11:30:00.835Z,37.90
2018-04-10T11:32:29.124Z,38.80
2018-04-10T11:34:57.768Z,38.40
2018-04-10T11:43:21.695Z,38.70
2018-04-10T11:45:49.522Z,39.30
2018-04-10T11:48:28.054Z,38.70
2018-04-10T12:04:27.307Z,37.10
2018-04-10T12:07:14.680Z,35.40
2018-04-10T12:09:43.069Z,34.70
2018-04-10T12:12:27.224Z,34.70
2018-04-10T12:14:58.029Z,34.60
2018-04-10T12:28:13.446Z,34.00
2018-04-10T12:30:41.013Z,33.40
2018-04-10T12:36:01.601Z,32.00
2018-04-10T12:38:29.112Z,32.00
2018-04-10T12:40:57.383Z,33.10
2018-04-10T12:43:25.055Z,33.20
2018-04-10T12:45:52.576Z,32.30
2018-04-10T12:48:20.094Z,32.40
2018-04-10T12:50:47.604Z,31.30
2018-04-10T12:53:36.689Z,30.40
2018-04-10T13:16:54.947Z,31.70
2018-04-10T13:19:36.602Z,31.70
2018-04-10T13:22:07.020Z,31.30
2018-04-10T13:24:35.455Z,32.80
2018-04-10T13:27:03.014Z,32.70
2018-04-10T13:29:36.762Z,32.60
2018-04-10T13:38:02.049Z,32.20
2018-04-10T13:40:29.584Z,33.40
2018-04-10T13:46:03.915Z,33.40
2018-04-10T13:51:12.980Z,33.40
2018-04-10T14:08:58.401Z,35.10
2018-04-10T14:11:27.943Z,35.60
2018-04-10T14:13:59.910Z,35.70
2018-04-10T15:02:31.067Z,37.90
2018-04-10T15:04:58.606Z,37.50
2018-04-10T15:07:26.139Z,37.40
2018-04-10T15:09:54.786Z,39.90
2018-04-10T15:12:27.052Z,39.40
2018-04-10T15:14:59.062Z,39.40
2018-04-10T15:17:29.676Z,45.60
2018-04-10T15:20:10.404Z,45.50
2018-04-10T15:23:03.101Z,47.30
2018-04-10T16:00:23.146Z,53.10
2018-04-10T16:02:55.200Z,53.10
2018-04-10T16:05:29.690Z,53.10
2018-04-10T16:10:58.430Z,51.70
2018-04-10T16:13:26.767Z,52.60
2018-04-10T16:15:54.245Z,52.50
2018-04-10T16:18:22.542Z,52.30
2018-04-10T16:20:50.020Z,52.20
2018-04-10T16:23:17.544Z,53.10
2018-04-10T16:28:42.092Z,51.00
2018-04-10T16:31:09.573Z,51.60
2018-04-10T16:33:41.049Z,53.70
2018-04-10T16:36:13.742Z,55.00
2018-04-10T16:38:43.916Z,55.80
2018-04-10T16:41:16.176Z,55.70
2018-04-10T16:43:55.210Z,57.10
2018-04-10T16:46:23.673Z,57.10
2018-04-10T16:48:57.689Z,62.40
2018-04-10T16:51:25.556Z,61.60
2018-04-10T16:54:05.429Z,60.70
2018-04-10T16:56:32.995Z,60.20
2018-04-10T16:59:00.932Z,59.50
2018-04-10T17:01:36.150Z,59.00
2018-04-10T17:04:04.467Z,58.70
2018-04-10T17:06:32.053Z,58.70
2018-04-10T17:08:59.562Z,58.90
2018-04-10T17:11:29.159Z,59.20
2018-04-10T17:13:56.869Z,59.60
2018-04-10T17:16:25.148Z,58.70
2018-04-10T17:18:53.537Z,58.70
2018-04-10T17:21:27.322Z,58.60
2018-04-10T17:23:55.041Z,58.10
2018-04-10T17:26:26.923Z,58.40
2018-04-10T17:28:58.204Z,58.90
2018-04-10T17:31:26.589Z,59.40
2018-04-10T17:33:57.784Z,59.10
2018-04-10T17:36:26.276Z,60.60
2018-04-10T17:38:54.834Z,60.50
2018-04-10T17:41:27.599Z,66.00
2018-04-10T17:44:01.184Z,70.30
2018-04-10T17:46:29.833Z,70.30
2018-04-10T17:48:59.520Z,70.10
2018-04-10T17:51:30.976Z,70.40
2018-04-10T17:54:03.880Z,70.30
2018-04-10T17:56:31.457Z,71.90
2018-04-10T17:59:03.567Z,73.80
2018-04-10T18:01:34.093Z,74.10
2018-04-10T18:04:01.947Z,74.10
2018-04-10T18:06:32.013Z,73.70
2018-04-10T18:08:59.755Z,75.00
2018-04-10T18:11:31.409Z,74.00
2018-04-10T18:14:02.183Z,74.00
2018-04-10T18:16:30.497Z,75.60
2018-04-10T18:18:58.627Z,75.60
2018-04-10T18:21:26.248Z,76.10
2018-04-10T18:23:53.894Z,77.40
2018-04-10T18:26:27.965Z,77.20
2018-04-10T18:28:56.594Z,77.20
2018-04-10T18:31:24.160Z,77.20
2018-04-10T18:33:52.783Z,77.30
2018-04-10T18:36:20.403Z,77.30
2018-04-10T18:38:49.775Z,77.20
2018-04-10T18:41:18.280Z,77.50
2018-04-10T18:43:52.191Z,77.50
2018-04-10T18:46:29.543Z,78.30
2018-04-10T18:48:58.448Z,78.30
2018-04-10T18:51:29.577Z,77.20
2018-04-10T18:53:57.322Z,77.20
2018-04-10T18:56:25.995Z,78.30
2018-04-10T18:58:55.471Z,77.60
2018-04-10T19:01:23.068Z,77.60
2018-04-10T19:03:50.661Z,76.90
2018-04-10T19:06:22.703Z,76.90
2018-04-10T19:08:50.866Z,76.20
2018-04-10T19:11:23.795Z,75.20
2018-04-10T19:13:51.863Z,76.30
2018-04-10T19:16:21.465Z,77.20
2018-04-10T19:21:47.337Z,77.50
2018-04-10T19:24:14.898Z,77.30
2018-04-10T19:26:43.142Z,77.70
2018-04-10T19:29:11.182Z,77.70
2018-04-10T19:31:38.978Z,77.80
2018-04-10T19:34:06.490Z,76.70
2018-04-10T19:36:34.730Z,77.90
2018-04-10T19:39:19.319Z,77.90
2018-04-10T19:41:46.811Z,77.90
2018-04-10T19:44:15.054Z,79.20
2018-04-10T19:46:42.573Z,79.10
2018-04-10T19:49:10.844Z,78.70
2018-04-10T19:51:38.451Z,78.70
2018-04-10T19:54:06.812Z,79.40
2018-04-10T19:56:38.368Z,79.80
2018-04-10T19:59:05.954Z,79.70
2018-04-10T20:01:33.458Z,80.30
2018-04-10T20:04:01.117Z,80.00
2018-04-10T20:06:28.646Z,80.70
2018-04-10T20:08:56.370Z,78.30
2018-04-10T20:11:24.087Z,78.90
2018-04-10T20:13:52.421Z,79.50
2018-04-10T20:16:20.720Z,79.40
2018-04-10T20:18:48.226Z,79.40
2018-04-10T20:21:15.736Z,78.80
2018-04-10T20:23:43.230Z,77.70
2018-04-10T20:26:10.709Z,77.70
2018-04-10T20:28:38.224Z,76.90
2018-04-10T20:31:05.710Z,76.30
2018-04-10T20:33:33.221Z,75.40
2018-04-10T20:36:00.923Z,73.70
2018-04-10T20:38:28.402Z,73.60
2018-04-10T20:40:55.857Z,74.20
2018-04-10T20:43:23.344Z,70.80
2018-04-10T20:45:50.814Z,72.10
2018-04-10T20:48:32.459Z,70.40
2018-04-10T20:51:00.124Z,71.60
2018-04-10T20:53:28.395Z,70.20
2018-04-10T20:55:55.969Z,70.20
2018-04-10T20:58:24.237Z,70.60
2018-04-10T21:00:51.754Z,70.50
2018-04-10T21:03:20.006Z,71.90
2018-04-10T21:05:47.568Z,72.70
2018-04-10T21:08:15.073Z,70.70
2018-04-10T21:10:43.305Z,68.80
2018-04-10T21:13:11.711Z,66.90
2018-04-10T21:15:39.204Z,66.80
2018-04-10T21:18:06.692Z,68.00
2018-04-10T21:20:34.971Z,66.80
2018-04-10T21:23:03.258Z,68.30
2018-04-10T21:25:31.491Z,67.00
2018-04-10T21:27:58.943Z,67.00
2018-04-10T21:30:26.496Z,67.50
2018-04-10T21:32:53.959Z,68.00
2018-04-10T21:35:22.207Z,67.30
2018-04-10T21:37:49.690Z,67.30
2018-04-10T21:40:17.336Z,66.30
2018-04-10T21:42:50.499Z,66.90
2018-04-10T21:45:18.040Z,67.50
2018-04-10T21:47:45.522Z,67.00
2018-04-10T21:50:13.029Z,65.50
2018-04-10T21:52:40.500Z,67.10
2018-04-10T21:55:08.015Z,66.70
2018-04-10T21:57:35.525Z,67.60
2018-04-10T22:00:03.782Z,66.00
2018-04-10T22:02:31.288Z,66.00
2018-04-10T22:04:58.751Z,66.10
2018-04-10T22:07:26.220Z,66.10
2018-04-10T22:09:54.788Z,65.20
2018-04-10T22:12:22.281Z,65.20
2018-04-10T22:14:50.627Z,65.90
2018-04-10T22:17:18.510Z,65.80
2018-04-10T22:19:46.065Z,65.70
2018-04-10T22:22:13.551Z,66.40
2018-04-10T22:24:41.116Z,66.20
2018-04-10T22:27:08.597Z,66.60
2018-04-10T22:29:36.165Z,66.60
2018-04-10T22:32:03.639Z,66.10
2018-04-10T22:34:31.144Z,64.60
2018-04-10T22:36:58.642Z,66.30
2018-04-10T22:39:26.119Z,65.90
2018-04-10T22:41:53.582Z,64.90
2018-04-10T22:44:21.060Z,65.80
2018-04-10T22:46:48.581Z,65.20
2018-04-10T22:49:16.258Z,65.50
2018-04-10T22:51:43.757Z,65.70
2018-04-10T22:54:11.237Z,65.20
2018-04-10T22:56:38.983Z,64.80
2018-04-10T22:59:06.474Z,64.60
2018-04-10T23:01:33.944Z,64.50
2018-04-10T23:04:01.488Z,64.60
2018-04-10T23:06:29.041Z,65.30
2018-04-10T23:08:56.547Z,65.90
2018-04-10T23:11:24.175Z,65.20
2018-04-10T23:13:52.456Z,65.00
2018-04-10T23:16:20.082Z,64.90
2018-04-10T23:18:49.465Z,64.60
2018-04-10T23:21:17.724Z,65.50
2018-04-10T23:23:45.224Z,65.50
2018-04-10T23:26:13.549Z,65.00
2018-04-10T23:28:41.032Z,64.90
2018-04-10T23:31:08.557Z,65.60
2018-04-10T23:33:36.828Z,65.20
2018-04-10T23:36:04.360Z,65.10
2018-04-10T23:38:31.849Z,64.90
2018-04-10T23:40:59.330Z,65.20
2018-04-10T23:43:26.833Z,65.10
2018-04-10T23:45:55.158Z,64.80
2018-04-10T23:48:22.654Z,64.70
2018-04-10T23:50:50.177Z,64.70
2018-04-10T23:53:17.672Z,64.90
2018-04-10T23:55:45.162Z,65.00
2018-04-10T23:58:12.638Z,64.40
